Time;durP1;ratioP1;P1;durP2;ratioP2;P2;SDS_P1;SDS_P2;PMS_P1;PMS_P2;Temp;Humidity;BMP_temperature;BMP_pressure;BME280_temperature;BME280_humidity;BME280_pressure;Samples;Min_cycle;Max_cycle;Signal;HPM_P1;HPM_P2
2024/03/19 00:01:33;;;;;;;9.23;4.63;;;;;;;;;;5025403;28;58397;-73
2024/03/19 00:03:59;;;;;;;10.73;4.87;;;;;;;;;;5026276;28;59668;-76
2024/03/19 00:06:24;;;;;;;7.30;5.20;;;;;;;;;;5024351;28;59152;-74
2024/03/19 00:08:49;;;;;;;9.67;4.53;;;;;;;;;;5025566;28;58383;-74
2024/03/19 00:11:14;;;;;;;9.67;5.17;;;;;;;;;;5025363;28;58739;-74
2024/03/19 00:13:39;;;;;;;10.80;5.93;;;;;;;;;;5025489;28;58627;-74
2024/03/19 00:16:05;;;;;;;8.05;5.13;;;;;;;;;;5023880;28;58460;-74
2024/03/19 00:18:30;;;;;;;10.82;5.32;;;;;;;;;;5025404;28;60656;-74
2024/03/19 00:20:55;;;;;;;11.95;5.00;;;;;;;;;;5025657;28;58460;-74
2024/03/19 00:23:20;;;;;;;7.47;4.15;;;;;;;;;;5025000;28;59315;-74
2024/03/19 00:25:46;;;;;;;8.97;4.37;;;;;;;;;;5022766;28;59313;-74
2024/03/19 00:28:11;;;;;;;9.67;5.40;;;;;;;;;;5023839;28;58472;-74
2024/03/19 00:30:36;;;;;;;9.70;4.90;;;;;;;;;;5025639;28;60391;-73
2024/03/19 00:33:01;;;;;;;8.75;4.72;;;;;;;;;;5025300;28;58614;-74
2024/03/19 00:35:26;;;;;;;7.30;4.50;;;;;;;;;;5026114;28;58537;-74
2024/03/19 00:37:52;;;;;;;7.43;4.17;;;;;;;;;;5027761;28;58294;-73
2024/03/19 00:40:17;;;;;;;7.80;4.70;;;;;;;;;;5027149;28;59945;-74
2024/03/19 00:42:46;;;;;;;7.50;3.83;;;;;;;;;;5029303;28;58404;-74
2024/03/19 00:45:11;;;;;;;;;;;;;;;;;;5027652;28;59887;-75
2024/03/19 00:47:36;;;;;;;8.20;4.10;;;;;;;;;;5029078;28;58472;-75
2024/03/19 00:50:02;;;;;;;6.43;3.55;;;;;;;;;;5029162;28;59278;-76
2024/03/19 00:52:27;;;;;;;6.97;3.60;;;;;;;;;;5028324;27;58973;-75
2024/03/19 00:54:52;;;;;;;11.23;4.33;;;;;;;;;;5027695;28;58428;-75
2024/03/19 00:57:18;;;;;;;5.00;3.60;;;;;;;;;;5027559;28;60378;-76
2024/03/19 00:59:43;;;;;;;6.93;4.73;;;;;;;;;;5027029;28;58396;-75
2024/03/19 01:02:08;;;;;;;6.78;3.67;;;;;;;;;;5028851;27;58512;-75
2024/03/19 01:04:36;;;;;;;5.97;3.93;;;;;;;;;;5028242;28;59385;-72
2024/03/19 01:07:01;;;;;;;;;;;;;;;;;;5028252;28;58385;-72
2024/03/19 01:09:27;;;;;;;5.57;3.25;;;;;;;;;;5029158;28;59709;-72
2024/03/19 01:11:53;;;;;;;8.48;3.00;;;;;;;;;;5026488;28;59156;-73
2024/03/19 01:14:18;;;;;;;6.97;3.25;;;;;;;;;;5026760;28;58449;-74
2024/03/19 01:16:43;;;;;;;5.27;3.07;;;;;;;;;;5026516;28;59634;-73
2024/03/19 01:19:08;;;;;;;8.63;3.57;;;;;;;;;;5026252;28;58467;-73
2024/03/19 01:21:33;;;;;;;6.32;2.97;;;;;;;;;;5025804;28;58510;-73
2024/03/19 01:23:59;;;;;;;7.63;3.30;;;;;;;;;;5024718;28;59507;-73
2024/03/19 01:26:24;;;;;;;5.55;2.95;;;;;;;;;;5025953;28;58508;-74
2024/03/19 01:28:49;;;;;;;4.75;3.50;;;;;;;;;;5025564;28;59402;-73
2024/03/19 01:31:14;;;;;;;5.27;2.70;;;;;;;;;;5025634;28;59038;-74
2024/03/19 01:33:40;;;;;;;4.00;3.07;;;;;;;;;;5026169;28;58427;-73
2024/03/19 01:36:05;;;;;;;3.95;2.50;;;;;;;;;;5027057;28;59762;-73
2024/03/19 01:38:30;;;;;;;5.10;2.50;;;;;;;;;;5022514;28;58908;-74
2024/03/19 01:40:56;;;;;;;3.43;2.57;;;;;;;;;;5024951;28;58823;-73
2024/03/19 01:43:21;;;;;;;4.68;2.50;;;;;;;;;;5025028;28;59469;-73
2024/03/19 01:46:05;;;;;;;5.03;2.42;;;;;;;;;;5024788;28;58907;-73
2024/03/19 01:48:31;;;;;;;5.38;3.15;;;;;;;;;;5023963;28;59477;-73
2024/03/19 01:50:56;;;;;;;4.55;2.65;;;;;;;;;;5023661;28;58462;-73
2024/03/19 01:53:21;;;;;;;6.50;2.25;;;;;;;;;;5024021;28;58505;-73
2024/03/19 01:55:46;;;;;;;2.00;1.60;;;;;;;;;;5025302;28;59326;-73
2024/03/19 01:58:11;;;;;;;3.35;2.50;;;;;;;;;;5023505;28;58735;-73
2024/03/19 02:00:36;;;;;;;5.05;2.67;;;;;;;;;;5024260;28;58552;-73
2024/03/19 02:03:02;;;;;;;2.95;1.80;;;;;;;;;;5023204;28;59430;-74
2024/03/19 02:05:27;;;;;;;2.97;2.50;;;;;;;;;;5022269;28;60010;-73
2024/03/19 02:07:52;;;;;;;4.05;2.53;;;;;;;;;;5024992;28;58401;-73
2024/03/19 02:10:17;;;;;;;3.20;1.95;;;;;;;;;;5025234;28;58824;-73
2024/03/19 02:12:42;;;;;;;4.60;2.03;;;;;;;;;;5024811;28;58585;-73
2024/03/19 02:15:08;;;;;;;3.60;3.17;;;;;;;;;;5023976;28;59283;-73
2024/03/19 02:17:33;;;;;;;3.85;2.70;;;;;;;;;;5022434;28;58619;-73
2024/03/19 02:19:58;;;;;;;3.92;2.47;;;;;;;;;;5023417;28;58576;-73
2024/03/19 02:22:25;;;;;;;2.63;2.10;;;;;;;;;;5024327;28;58341;-73
2024/03/19 02:24:50;;;;;;;4.78;2.30;;;;;;;;;;5022882;28;60158;-74
2024/03/19 02:27:16;;;;;;;2.75;1.67;;;;;;;;;;5023397;28;58340;-73
2024/03/19 02:29:43;;;;;;;2.67;2.03;;;;;;;;;;5023689;28;59394;-73
2024/03/19 02:32:09;;;;;;;7.60;2.83;;;;;;;;;;5023791;28;58428;-73
2024/03/19 02:34:34;;;;;;;2.92;2.55;;;;;;;;;;5024361;28;59710;-73
2024/03/19 02:36:59;;;;;;;3.27;2.30;;;;;;;;;;5026743;28;58983;-73
2024/03/19 02:39:24;;;;;;;2.43;2.13;;;;;;;;;;5025259;28;58642;-73
2024/03/19 02:41:50;;;;;;;2.30;1.73;;;;;;;;;;5024878;28;59458;-73
2024/03/19 02:44:16;;;;;;;3.50;2.15;;;;;;;;;;5023566;28;58924;-73
2024/03/19 02:46:41;;;;;;;3.40;2.35;;;;;;;;;;5023961;28;58383;-73
2024/03/19 02:49:06;;;;;;;2.53;2.27;;;;;;;;;;5026833;28;59433;-73
2024/03/19 02:51:31;;;;;;;2.20;1.40;;;;;;;;;;5027061;28;58451;-73
2024/03/19 02:53:57;;;;;;;3.17;2.08;;;;;;;;;;5027365;28;59797;-73
2024/03/19 02:56:22;;;;;;;3.50;3.20;;;;;;;;;;5027718;28;58994;-73
2024/03/19 02:58:47;;;;;;;2.22;1.77;;;;;;;;;;5024948;28;58424;-73
2024/03/19 03:01:12;;;;;;;3.63;1.73;;;;;;;;;;5024053;28;59547;-73
2024/03/19 03:03:38;;;;;;;1.92;1.30;;;;;;;;;;5023860;28;58937;-73
2024/03/19 03:06:04;;;;;;;3.13;2.33;;;;;;;;;;5023888;28;58468;-73
2024/03/19 03:08:29;;;;;;;2.43;1.90;;;;;;;;;;5025495;28;59928;-73
2024/03/19 03:10:54;;;;;;;2.05;1.58;;;;;;;;;;5023097;28;58610;-73
2024/03/19 03:13:19;;;;;;;2.70;2.13;;;;;;;;;;5025931;28;58547;-73
2024/03/19 03:15:44;;;;;;;1.90;1.37;;;;;;;;;;5027041;28;58494;-73
2024/03/19 03:18:12;;;;;;;3.83;1.87;;;;;;;;;;5024786;28;58376;-73
2024/03/19 03:20:38;;;;;;;2.28;1.77;;;;;;;;;;5024160;28;59486;-73
2024/03/19 03:23:03;;;;;;;2.07;1.60;;;;;;;;;;5023901;28;59010;-73
2024/03/19 03:25:29;;;;;;;2.13;1.92;;;;;;;;;;5024755;28;58482;-73
2024/03/19 03:27:54;;;;;;;2.13;1.52;;;;;;;;;;5024892;28;59178;-73
2024/03/19 03:30:20;;;;;;;2.10;1.50;;;;;;;;;;5023101;28;58839;-73
2024/03/19 03:32:45;;;;;;;2.65;1.70;;;;;;;;;;5023342;28;58453;-71
2024/03/19 03:35:10;;;;;;;2.08;1.52;;;;;;;;;;5022641;28;58396;-72
2024/03/19 03:37:36;;;;;;;2.10;1.90;;;;;;;;;;5024793;28;58405;-71
2024/03/19 03:40:08;;;;;;;1.73;1.20;;;;;;;;;;5024510;28;58505;-71
2024/03/19 03:42:33;;;;;;;3.15;1.83;;;;;;;;;;5025694;28;58338;-72
2024/03/19 03:44:58;;;;;;;1.67;1.42;;;;;;;;;;5039459;28;58304;-72
2024/03/19 03:47:24;;;;;;;2.42;1.58;;;;;;;;;;5025163;28;59150;-71
2024/03/19 03:49:50;;;;;;;1.60;1.50;;;;;;;;;;5023654;28;59053;-72
2024/03/19 03:52:15;;;;;;;2.40;1.92;;;;;;;;;;5023375;28;58462;-72
2024/03/19 03:54:40;;;;;;;2.15;1.50;;;;;;;;;;5024054;28;60049;-72
2024/03/19 03:57:05;;;;;;;2.53;1.98;;;;;;;;;;5024076;28;58442;-72
2024/03/19 03:59:31;;;;;;;2.75;1.80;;;;;;;;;;5024282;28;58412;-72
2024/03/19 04:01:56;;;;;;;1.67;1.30;;;;;;;;;;5024244;28;58914;-72
2024/03/19 04:04:21;;;;;;;1.25;1.15;;;;;;;;;;5025822;28;58343;-72
2024/03/19 04:06:49;;;;;;;1.83;1.30;;;;;;;;;;5025888;28;57882;-72
2024/03/19 04:09:15;;;;;;;;;;;;;;;;;;5024621;28;58255;-72
2024/03/19 04:11:40;;;;;;;1.45;1.20;;;;;;;;;;5026266;28;58633;-71
2024/03/19 04:14:05;;;;;;;1.93;1.30;;;;;;;;;;5027167;28;59273;-71
2024/03/19 04:16:30;;;;;;;1.50;1.40;;;;;;;;;;5028645;28;58774;-72
2024/03/19 04:18:55;;;;;;;1.60;1.50;;;;;;;;;;5027411;28;59369;-72
2024/03/19 04:21:21;;;;;;;1.70;1.60;;;;;;;;;;5025985;28;58793;-72
2024/03/19 04:23:46;;;;;;;1.83;1.30;;;;;;;;;;5027272;28;58383;-72
2024/03/19 04:26:11;;;;;;;2.23;1.77;;;;;;;;;;5027144;28;60106;-71
2024/03/19 04:28:37;;;;;;;2.70;1.63;;;;;;;;;;5027144;28;58760;-72
2024/03/19 04:31:02;;;;;;;2.57;1.23;;;;;;;;;;5027934;28;58455;-72
2024/03/19 04:33:27;;;;;;;1.40;1.30;;;;;;;;;;5028208;28;58544;-72
2024/03/19 04:35:52;;;;;;;1.67;1.58;;;;;;;;;;5025825;28;59411;-72
2024/03/19 04:38:17;;;;;;;1.50;1.20;;;;;;;;;;5027360;28;58376;-72
2024/03/19 04:40:42;;;;;;;3.30;2.27;;;;;;;;;;5025091;28;59075;-71
2024/03/19 04:43:07;;;;;;;1.90;1.70;;;;;;;;;;5027515;28;58396;-72
2024/03/19 04:45:33;;;;;;;1.80;1.30;;;;;;;;;;5027389;28;59640;-73
2024/03/19 04:47:58;;;;;;;1.40;1.30;;;;;;;;;;5027865;28;58344;-72
2024/03/19 04:50:23;;;;;;;2.13;1.80;;;;;;;;;;5026479;28;58242;-72
2024/03/19 04:52:49;;;;;;;1.50;1.08;;;;;;;;;;5027480;28;59442;-71
2024/03/19 04:55:14;;;;;;;1.65;1.52;;;;;;;;;;5026799;28;58596;-71
2024/03/19 04:57:40;;;;;;;1.57;1.40;;;;;;;;;;5027289;28;58459;-72
2024/03/19 05:00:06;;;;;;;2.27;1.80;;;;;;;;;;5025886;28;59450;-72
2024/03/19 05:02:32;;;;;;;2.83;1.50;;;;;;;;;;5026545;28;58042;-72
2024/03/19 05:04:57;;;;;;;1.50;1.13;;;;;;;;;;5025411;28;58763;-72
2024/03/19 05:07:22;;;;;;;1.20;1.10;;;;;;;;;;5025303;28;58448;-72
2024/03/19 05:09:48;;;;;;;1.60;1.50;;;;;;;;;;5027381;28;58468;-71
2024/03/19 05:12:13;;;;;;;1.40;1.20;;;;;;;;;;5026913;28;60283;-72
2024/03/19 05:14:38;;;;;;;2.77;1.57;;;;;;;;;;5026066;28;58176;-71
2024/03/19 05:17:03;;;;;;;1.67;1.55;;;;;;;;;;5026600;28;58483;-71
2024/03/19 05:19:28;;;;;;;1.23;1.10;;;;;;;;;;5026739;28;58701;-72
2024/03/19 05:21:53;;;;;;;2.25;1.23;;;;;;;;;;5027202;28;58114;-72
2024/03/19 05:24:19;;;;;;;1.30;1.20;;;;;;;;;;5025270;28;58272;-72
2024/03/19 05:26:44;;;;;;;1.20;1.07;;;;;;;;;;5025743;28;58339;-71
2024/03/19 05:29:09;;;;;;;1.38;1.23;;;;;;;;;;5026120;28;58484;-71
2024/03/19 05:31:34;;;;;;;1.30;1.20;;;;;;;;;;5030236;28;59112;-72
2024/03/19 05:33:59;;;;;;;1.60;1.30;;;;;;;;;;5025365;28;58950;-72
2024/03/19 05:36:24;;;;;;;1.90;1.37;;;;;;;;;;5026065;28;58429;-72
2024/03/19 05:38:50;;;;;;;1.92;1.27;;;;;;;;;;5025985;28;59789;-72
2024/03/19 05:41:15;;;;;;;1.77;1.20;;;;;;;;;;5025281;28;58809;-72
2024/03/19 05:43:41;;;;;;;1.92;1.20;;;;;;;;;;5026167;28;59233;-73
2024/03/19 05:46:07;;;;;;;1.00;1.00;;;;;;;;;;5026330;28;58904;-73
2024/03/19 05:48:33;;;;;;;1.40;1.30;;;;;;;;;;5026404;28;58424;-73
2024/03/19 05:50:59;;;;;;;1.50;1.40;;;;;;;;;;5024621;28;59471;-72
2024/03/19 05:53:24;;;;;;;0.97;0.87;;;;;;;;;;5026161;28;58404;-71
2024/03/19 05:55:49;;;;;;;1.13;1.02;;;;;;;;;;5025296;28;57999;-71
2024/03/19 05:58:14;;;;;;;1.40;1.30;;;;;;;;;;5025756;28;58473;-71
2024/03/19 06:00:39;;;;;;;1.07;0.90;;;;;;;;;;5024173;28;58445;-71
2024/03/19 06:03:04;;;;;;;1.63;1.27;;;;;;;;;;5025897;28;58360;-71
2024/03/19 06:05:31;;;;;;;1.20;1.10;;;;;;;;;;5025226;28;58491;-72
2024/03/19 06:07:56;;;;;;;1.20;1.10;;;;;;;;;;5024422;28;58436;-71
2024/03/19 06:10:21;;;;;;;1.70;1.60;;;;;;;;;;5025593;28;59342;-71
2024/03/19 06:12:47;;;;;;;1.45;1.30;;;;;;;;;;5026291;28;58511;-71
2024/03/19 06:15:12;;;;;;;1.20;1.10;;;;;;;;;;5025215;28;58417;-71
2024/03/19 06:17:37;;;;;;;1.63;1.53;;;;;;;;;;5026179;28;58602;-70
2024/03/19 06:20:04;;;;;;;1.60;1.50;;;;;;;;;;5024245;28;58870;-71
2024/03/19 06:22:29;;;;;;;1.15;1.08;;;;;;;;;;5024686;27;58360;-71
2024/03/19 06:24:54;;;;;;;1.23;1.13;;;;;;;;;;5026140;28;58419;-72
2024/03/19 06:27:19;;;;;;;1.40;1.30;;;;;;;;;;5025040;28;58439;-71
2024/03/19 06:29:45;;;;;;;1.48;1.38;;;;;;;;;;5039702;28;61194;-71
2024/03/19 06:32:11;;;;;;;1.60;1.50;;;;;;;;;;5023707;28;58527;-71
2024/03/19 06:34:36;;;;;;;1.30;1.20;;;;;;;;;;5023931;28;58484;-71
2024/03/19 06:37:01;;;;;;;1.10;1.10;;;;;;;;;;5024719;28;58694;-71
2024/03/19 06:39:26;;;;;;;0.80;0.77;;;;;;;;;;5024635;28;58531;-72
2024/03/19 06:41:52;;;;;;;1.88;1.17;;;;;;;;;;5024054;28;58566;-73
2024/03/19 06:44:17;;;;;;;1.42;1.33;;;;;;;;;;5024881;28;59212;-73
2024/03/19 06:46:42;;;;;;;1.67;1.20;;;;;;;;;;5025387;28;59020;-73
2024/03/19 06:49:07;;;;;;;1.20;1.10;;;;;;;;;;5025427;28;58466;-73
2024/03/19 06:51:32;;;;;;;1.90;1.27;;;;;;;;;;5023040;28;58806;-72
2024/03/19 06:53:58;;;;;;;1.50;1.40;;;;;;;;;;5024299;28;58485;-72
2024/03/19 06:56:23;;;;;;;1.05;1.05;;;;;;;;;;5025836;28;59492;-72
2024/03/19 06:58:48;;;;;;;1.35;1.25;;;;;;;;;;5025508;28;58695;-72
2024/03/19 07:01:13;;;;;;;1.63;1.52;;;;;;;;;;5028826;28;58371;-72
2024/03/19 07:03:39;;;;;;;1.48;1.33;;;;;;;;;;5022463;28;59327;-73
2024/03/19 07:06:04;;;;;;;1.50;1.40;;;;;;;;;;5023607;27;58973;-74
2024/03/19 07:08:30;;;;;;;1.40;1.23;;;;;;;;;;5024320;28;58373;-74
2024/03/19 07:10:57;;;;;;;1.45;1.35;;;;;;;;;;5003250;28;59544;-73
2024/03/19 07:13:22;;;;;;;1.30;1.20;;;;;;;;;;5024092;28;57821;-74
2024/03/19 07:15:48;;;;;;;1.20;1.10;;;;;;;;;;5023533;28;59354;-74
2024/03/19 07:18:13;;;;;;;1.40;0.90;;;;;;;;;;5022374;28;58389;-73
2024/03/19 07:20:39;;;;;;;1.10;1.00;;;;;;;;;;5025029;28;58503;-74
2024/03/19 07:23:05;;;;;;;1.35;1.25;;;;;;;;;;5026103;28;59608;-73
2024/03/19 07:25:30;;;;;;;1.77;1.67;;;;;;;;;;5024372;28;58485;-74
2024/03/19 07:27:55;;;;;;;1.43;1.20;;;;;;;;;;5026936;28;58456;-74
2024/03/19 07:30:22;;;;;;;1.20;1.10;;;;;;;;;;5024489;28;59161;-74
2024/03/19 07:32:47;;;;;;;2.90;1.27;;;;;;;;;;5025857;28;58398;-74
2024/03/19 07:35:12;;;;;;;1.30;1.20;;;;;;;;;;5025470;28;59417;-74
2024/03/19 07:37:38;;;;;;;1.43;1.30;;;;;;;;;;5025197;28;59190;-75
2024/03/19 07:40:04;;;;;;;3.13;1.30;;;;;;;;;;5025572;28;58305;-75
2024/03/19 07:42:29;;;;;;;1.73;1.58;;;;;;;;;;5025113;28;58766;-74
2024/03/19 07:44:55;;;;;;;2.15;1.60;;;;;;;;;;5024790;28;58979;-74
2024/03/19 07:47:20;;;;;;;1.40;1.30;;;;;;;;;;5024381;28;58406;-73
2024/03/19 07:49:46;;;;;;;1.50;1.40;;;;;;;;;;5025791;28;58590;-74
2024/03/19 07:52:11;;;;;;;0.93;0.93;;;;;;;;;;5026837;28;58408;-74
2024/03/19 07:54:36;;;;;;;3.80;1.97;;;;;;;;;;5023573;28;59557;-74
2024/03/19 07:57:01;;;;;;;1.23;1.13;;;;;;;;;;5025845;28;58787;-74
2024/03/19 07:59:27;;;;;;;5.30;2.10;;;;;;;;;;5024921;28;58326;-76
2024/03/19 08:01:52;;;;;;;3.90;2.00;;;;;;;;;;5025863;28;59643;-76
2024/03/19 08:04:18;;;;;;;2.42;1.83;;;;;;;;;;5026049;28;58135;-75
2024/03/19 08:06:44;;;;;;;1.27;1.08;;;;;;;;;;5025674;28;58162;-75
2024/03/19 08:09:09;;;;;;;2.75;1.58;;;;;;;;;;5023706;28;59844;-74
2024/03/19 08:11:34;;;;;;;4.00;1.43;;;;;;;;;;5025655;28;58087;-75
2024/03/19 08:14:00;;;;;;;2.10;1.50;;;;;;;;;;5024444;28;59425;-74
2024/03/19 08:16:25;;;;;;;2.03;1.80;;;;;;;;;;5025219;28;58512;-75
2024/03/19 08:18:50;;;;;;;3.25;2.08;;;;;;;;;;5025535;28;58339;-74
2024/03/19 08:21:15;;;;;;;1.38;1.27;;;;;;;;;;5025453;28;59180;-75
2024/03/19 08:23:43;;;;;;;4.60;2.00;;;;;;;;;;5022803;28;58923;-75
2024/03/19 08:26:09;;;;;;;1.45;1.35;;;;;;;;;;5024808;28;58413;-75
2024/03/19 08:28:34;;;;;;;1.50;1.40;;;;;;;;;;5024597;28;60364;-75
2024/03/19 08:31:00;;;;;;;1.57;1.47;;;;;;;;;;5025246;28;59857;-75
2024/03/19 08:33:25;;;;;;;2.90;1.55;;;;;;;;;;5026242;28;58198;-75
2024/03/19 08:35:50;;;;;;;4.55;1.90;;;;;;;;;;5024196;28;58394;-75
2024/03/19 08:38:15;;;;;;;1.63;1.53;;;;;;;;;;5024538;28;58506;-75
2024/03/19 08:40:41;;;;;;;1.73;1.63;;;;;;;;;;5025501;28;60102;-75
2024/03/19 08:43:06;;;;;;;1.67;1.58;;;;;;;;;;5025237;28;58703;-75
2024/03/19 08:45:31;;;;;;;2.20;2.07;;;;;;;;;;5026295;28;58355;-75
2024/03/19 08:47:57;;;;;;;1.90;1.80;;;;;;;;;;5026057;28;59739;-75
2024/03/19 08:50:22;;;;;;;1.65;1.55;;;;;;;;;;5023752;28;60147;-75
2024/03/19 08:52:47;;;;;;;1.92;1.83;;;;;;;;;;5026356;28;58412;-75
2024/03/19 08:55:12;;;;;;;2.20;1.87;;;;;;;;;;5026633;28;59491;-75
2024/03/19 08:57:41;;;;;;;1.73;1.63;;;;;;;;;;5024692;28;58559;-76
2024/03/19 09:00:11;;;;;;;1.83;1.73;;;;;;;;;;5028290;28;60366;-75
2024/03/19 09:02:37;;;;;;;2.10;1.90;;;;;;;;;;5024018;27;59091;-75
2024/03/19 09:05:02;;;;;;;1.80;1.70;;;;;;;;;;5028342;28;58461;-75
2024/03/19 09:07:27;;;;;;;2.23;2.03;;;;;;;;;;5027613;28;59811;-75
2024/03/19 09:09:52;;;;;;;1.70;1.60;;;;;;;;;;5027955;28;58459;-75
2024/03/19 09:12:18;;;;;;;1.73;1.63;;;;;;;;;;5029232;28;58444;-75
2024/03/19 09:14:43;;;;;;;2.27;2.00;;;;;;;;;;5028622;28;60287;-72
2024/03/19 09:17:09;;;;;;;1.50;1.40;;;;;;;;;;5027585;28;58685;-72
2024/03/19 09:19:38;;;;;;;1.98;1.88;;;;;;;;;;5027172;28;60303;-72
2024/03/19 09:22:04;;;;;;;1.52;1.42;;;;;;;;;;5027072;28;59235;-73
2024/03/19 09:24:30;;;;;;;2.05;1.92;;;;;;;;;;5027653;28;58446;-72
2024/03/19 09:26:55;;;;;;;1.85;1.75;;;;;;;;;;5027490;28;59538;-73
2024/03/19 09:29:20;;;;;;;2.57;2.13;;;;;;;;;;5026619;28;58501;-72
2024/03/19 09:31:45;;;;;;;2.20;2.00;;;;;;;;;;5028094;28;58148;-72
2024/03/19 09:34:10;;;;;;;2.20;2.00;;;;;;;;;;5028611;28;59243;-73
2024/03/19 09:36:36;;;;;;;1.60;1.50;;;;;;;;;;5024803;28;60562;-72
2024/03/19 09:39:04;;;;;;;2.17;1.60;;;;;;;;;;5026510;28;60043;-72
2024/03/19 09:41:29;;;;;;;1.88;1.75;;;;;;;;;;5025575;28;59083;-72
2024/03/19 09:43:55;;;;;;;1.77;1.67;;;;;;;;;;5026861;28;58423;-73
2024/03/19 09:46:20;;;;;;;1.77;1.67;;;;;;;;;;5028219;28;60559;-72
2024/03/19 09:48:46;;;;;;;2.47;2.00;;;;;;;;;;5027153;28;58717;-72
2024/03/19 09:51:18;;;;;;;2.28;1.58;;;;;;;;;;5026883;28;58453;-72
2024/03/19 09:53:44;;;;;;;2.35;1.80;;;;;;;;;;5040764;28;60784;-76
2024/03/19 09:56:14;;;;;;;2.78;2.55;;;;;;;;;;5027380;28;59210;-75
2024/03/19 09:58:39;;;;;;;4.90;2.85;;;;;;;;;;5028596;28;58350;-74
2024/03/19 10:01:06;;;;;;;3.20;2.57;;;;;;;;;;5026601;28;59030;-74
2024/03/19 10:03:31;;;;;;;3.30;2.67;;;;;;;;;;5026388;28;58401;-74
2024/03/19 10:05:56;;;;;;;4.03;2.80;;;;;;;;;;5026105;28;58400;-74
2024/03/19 10:08:21;;;;;;;3.60;2.67;;;;;;;;;;5027165;28;58658;-75
2024/03/19 10:10:47;;;;;;;3.00;2.70;;;;;;;;;;5026793;28;58448;-74
2024/03/19 10:13:12;;;;;;;4.20;2.90;;;;;;;;;;5027696;28;60357;-74
2024/03/19 10:15:37;;;;;;;3.92;3.22;;;;;;;;;;5026288;28;58785;-73
2024/03/19 10:18:05;;;;;;;4.60;3.17;;;;;;;;;;5024864;27;58490;-73
2024/03/19 10:20:30;;;;;;;5.60;2.67;;;;;;;;;;5026713;27;59433;-74
2024/03/19 10:22:55;;;;;;;3.17;2.50;;;;;;;;;;5027092;28;58471;-76
2024/03/19 10:25:21;;;;;;;3.37;2.87;;;;;;;;;;5027838;28;59386;-73
2024/03/19 10:27:47;;;;;;;10.68;3.63;;;;;;;;;;5026963;28;63196;-73
2024/03/19 10:30:13;;;;;;;5.03;2.95;;;;;;;;;;5026775;28;58521;-74
2024/03/19 10:32:42;;;;;;;4.25;3.10;;;;;;;;;;5027147;28;60610;-75
2024/03/19 10:35:21;;;;;;;3.67;3.38;;;;;;;;;;5024974;28;60205;-77
2024/03/19 10:37:50;;;;;;;5.63;4.10;;;;;;;;;;5026960;28;58388;-78
2024/03/19 10:40:16;;;;;;;7.82;3.65;;;;;;;;;;5026269;28;58581;-78
2024/03/19 10:42:42;;;;;;;2.85;2.38;;;;;;;;;;5025041;28;59065;-76
2024/03/19 10:45:18;;;;;;;4.25;2.58;;;;;;;;;;5026866;28;59517;-77
2024/03/19 10:47:47;;;;;;;3.42;2.80;;;;;;;;;;5025580;28;59036;-76
2024/03/19 10:50:14;;;;;;;3.88;2.65;;;;;;;;;;5026291;28;58420;-77
2024/03/19 10:52:41;;;;;;;2.88;2.38;;;;;;;;;;5025697;28;60363;-78
2024/03/19 10:55:10;;;;;;;3.60;3.30;;;;;;;;;;5040469;28;58965;-75
2024/03/19 10:57:35;;;;;;;5.10;2.78;;;;;;;;;;5026519;28;58376;-76
2024/03/19 11:00:00;;;;;;;3.43;2.40;;;;;;;;;;5024290;28;58386;-76
2024/03/19 11:02:25;;;;;;;3.45;2.70;;;;;;;;;;5024872;28;59268;-75
2024/03/19 11:04:57;;;;;;;4.00;2.00;;;;;;;;;;5026901;28;58555;-76
2024/03/19 11:07:23;;;;;;;2.83;2.40;;;;;;;;;;5025296;28;60070;-74
2024/03/19 11:09:52;;;;;;;2.90;2.33;;;;;;;;;;5027374;28;58345;-77
2024/03/19 11:12:20;;;;;;;4.22;2.58;;;;;;;;;;5025291;28;58580;-77
2024/03/19 11:14:53;;;;;;;3.03;2.38;;;;;;;;;;5025099;28;58759;-75
2024/03/19 11:17:18;;;;;;;2.70;2.38;;;;;;;;;;5025694;28;58416;-78
2024/03/19 11:19:52;;;;;;;3.40;2.20;;;;;;;;;;5024920;28;60158;-77
2024/03/19 11:22:18;;;;;;;3.03;2.17;;;;;;;;;;5024911;28;58949;-78
2024/03/19 11:24:43;;;;;;;2.58;1.90;;;;;;;;;;5025937;28;58296;-77
2024/03/19 11:27:15;;;;;;;2.53;2.33;;;;;;;;;;5024955;28;59444;-77
2024/03/19 11:29:40;;;;;;;2.75;2.55;;;;;;;;;;5025703;28;58577;-76
2024/03/19 11:32:08;;;;;;;2.47;2.22;;;;;;;;;;5025880;28;59304;-75
2024/03/19 11:34:34;;;;;;;7.00;2.70;;;;;;;;;;5024758;28;58403;-72
2024/03/19 11:36:59;;;;;;;4.80;2.43;;;;;;;;;;5026241;28;58386;-72
2024/03/19 11:39:24;;;;;;;2.60;2.33;;;;;;;;;;5024395;28;59339;-72
2024/03/19 11:41:50;;;;;;;2.30;1.80;;;;;;;;;;5024130;28;58835;-72
2024/03/19 11:44:16;;;;;;;2.20;2.03;;;;;;;;;;5025449;28;58405;-73
2024/03/19 11:46:42;;;;;;;2.10;1.90;;;;;;;;;;5025141;28;59488;-73
2024/03/19 11:49:23;;;;;;;3.47;1.58;;;;;;;;;;5025763;28;59634;-72
2024/03/19 11:51:55;;;;;;;2.15;1.95;;;;;;;;;;5025901;28;65187;-72
2024/03/19 11:54:21;;;;;;;1.60;1.50;;;;;;;;;;5022787;28;58995;-72
2024/03/19 11:56:46;;;;;;;2.13;1.77;;;;;;;;;;5023688;28;58500;-73
2024/03/19 11:59:11;;;;;;;3.67;1.60;;;;;;;;;;5024210;28;59417;-72
2024/03/19 12:01:36;;;;;;;2.80;1.97;;;;;;;;;;5023958;28;58981;-72
2024/03/19 12:04:01;;;;;;;1.88;1.70;;;;;;;;;;5024937;28;58398;-72
2024/03/19 12:06:26;;;;;;;4.80;1.77;;;;;;;;;;5024226;28;59544;-72
2024/03/19 12:08:52;;;;;;;2.93;1.97;;;;;;;;;;5022939;28;60682;-72
2024/03/19 12:11:19;;;;;;;1.70;1.40;;;;;;;;;;5024988;28;59477;-72
2024/03/19 12:13:45;;;;;;;2.33;1.63;;;;;;;;;;5023580;28;60915;-72
2024/03/19 12:16:10;;;;;;;1.83;1.38;;;;;;;;;;5024181;28;58002;-73
2024/03/19 12:18:36;;;;;;;2.17;1.87;;;;;;;;;;5023893;28;59535;-72
2024/03/19 12:21:02;;;;;;;1.60;1.20;;;;;;;;;;5022594;28;59722;-72
2024/03/19 12:23:27;;;;;;;1.75;1.35;;;;;;;;;;5023666;28;57845;-72
2024/03/19 12:25:53;;;;;;;1.45;1.35;;;;;;;;;;5023721;28;59660;-72
2024/03/19 12:28:18;;;;;;;2.13;1.17;;;;;;;;;;5025768;28;58234;-72
2024/03/19 12:30:44;;;;;;;1.13;1.02;;;;;;;;;;5025828;28;58412;-72
2024/03/19 12:33:19;;;;;;;1.45;1.35;;;;;;;;;;5026674;28;58804;-72
2024/03/19 12:35:44;;;;;;;2.45;1.48;;;;;;;;;;5028381;28;58463;-72
2024/03/19 12:38:12;;;;;;;1.75;1.65;;;;;;;;;;5028556;28;58411;-72
2024/03/19 12:40:38;;;;;;;1.42;1.33;;;;;;;;;;5027169;28;58962;-72
2024/03/19 12:43:03;;;;;;;1.05;0.95;;;;;;;;;;5028797;28;58427;-72
2024/03/19 12:45:29;;;;;;;0.80;0.80;;;;;;;;;;5027586;28;58479;-71
2024/03/19 12:47:54;;;;;;;2.38;1.20;;;;;;;;;;5026599;28;58471;-72
2024/03/19 12:50:19;;;;;;;4.03;1.30;;;;;;;;;;5026195;28;59706;-72
2024/03/19 12:52:44;;;;;;;1.33;1.23;;;;;;;;;;5028044;28;59131;-72
2024/03/19 12:55:10;;;;;;;1.52;1.42;;;;;;;;;;5028829;28;58351;-74
2024/03/19 12:57:36;;;;;;;1.55;1.33;;;;;;;;;;5027267;28;59835;-76
2024/03/19 13:00:03;;;;;;;0.88;0.88;;;;;;;;;;5025814;28;59824;-75
2024/03/19 13:02:29;;;;;;;1.35;0.90;;;;;;;;;;5026365;28;58480;-75
2024/03/19 13:04:54;;;;;;;1.20;1.10;;;;;;;;;;5027930;28;59403;-76
2024/03/19 13:07:19;;;;;;;1.80;1.17;;;;;;;;;;5027393;28;58580;-75
2024/03/19 13:09:44;;;;;;;0.80;0.80;;;;;;;;;;5028453;27;58539;-75
2024/03/19 13:12:10;;;;;;;1.17;1.10;;;;;;;;;;5028650;28;59349;-75
2024/03/19 13:14:36;;;;;;;0.50;0.50;;;;;;;;;;5028591;28;59108;-75
2024/03/19 13:17:01;;;;;;;0.85;0.80;;;;;;;;;;5027548;28;59604;-74
2024/03/19 13:19:26;;;;;;;1.00;0.40;;;;;;;;;;5028100;28;59746;-75
2024/03/19 13:21:52;;;;;;;1.13;1.02;;;;;;;;;;5029000;28;58481;-74
2024/03/19 13:24:17;;;;;;;0.80;0.80;;;;;;;;;;5028447;28;59508;-75
2024/03/19 13:26:42;;;;;;;0.70;0.70;;;;;;;;;;5028097;28;58480;-74
2024/03/19 13:29:07;;;;;;;1.33;0.60;;;;;;;;;;5027854;28;58358;-75
2024/03/19 13:31:33;;;;;;;1.17;0.50;;;;;;;;;;5028619;28;58453;-75
2024/03/19 13:33:58;;;;;;;0.63;0.60;;;;;;;;;;5042892;28;59845;-75
2024/03/19 13:36:23;;;;;;;1.00;0.60;;;;;;;;;;5029638;28;58522;-75
2024/03/19 13:38:48;;;;;;;0.80;0.80;;;;;;;;;;5027765;28;58863;-74
2024/03/19 13:41:14;;;;;;;0.50;0.50;;;;;;;;;;5027609;28;58472;-74
2024/03/19 13:43:40;;;;;;;0.43;0.40;;;;;;;;;;5027454;28;58649;-74
2024/03/19 13:46:05;;;;;;;0.52;0.52;;;;;;;;;;5027766;28;59913;-74
2024/03/19 13:48:35;;;;;;;1.30;1.23;;;;;;;;;;5026265;28;58617;-74
2024/03/19 13:51:00;;;;;;;0.95;0.80;;;;;;;;;;5027687;28;59361;-75
2024/03/19 13:53:28;;;;;;;0.50;0.50;;;;;;;;;;5025407;28;58890;-75
2024/03/19 13:55:53;;;;;;;0.75;0.75;;;;;;;;;;5027056;28;58552;-74
2024/03/19 13:58:19;;;;;;;0.40;0.40;;;;;;;;;;5027737;28;59675;-75
2024/03/19 14:00:44;;;;;;;0.73;0.57;;;;;;;;;;5027147;28;58492;-75
2024/03/19 14:03:12;;;;;;;0.60;0.60;;;;;;;;;;5027160;28;58479;-72
2024/03/19 14:05:38;;;;;;;0.45;0.45;;;;;;;;;;5025585;28;59022;-72
2024/03/19 14:08:05;;;;;;;0.40;0.40;;;;;;;;;;5026159;28;57821;-72
2024/03/19 14:10:30;;;;;;;0.60;0.60;;;;;;;;;;5027129;28;59514;-72
2024/03/19 14:12:56;;;;;;;0.50;0.50;;;;;;;;;;5027093;28;59669;-71
2024/03/19 14:15:22;;;;;;;1.00;0.40;;;;;;;;;;5026754;28;58440;-72
2024/03/19 14:17:50;;;;;;;1.55;0.47;;;;;;;;;;5027322;28;59314;-72
2024/03/19 14:20:15;;;;;;;0.55;0.40;;;;;;;;;;5026503;28;58376;-72
2024/03/19 14:22:41;;;;;;;0.55;0.30;;;;;;;;;;5026876;28;58372;-72
2024/03/19 14:25:06;;;;;;;0.38;0.38;;;;;;;;;;5026511;28;58600;-72
2024/03/19 14:27:31;;;;;;;0.33;0.30;;;;;;;;;;5026606;28;58274;-71
2024/03/19 14:29:57;;;;;;;0.40;0.30;;;;;;;;;;5025406;28;61256;-72
2024/03/19 14:32:22;;;;;;;0.38;0.38;;;;;;;;;;5025808;28;58900;-71
2024/03/19 14:34:47;;;;;;;0.53;0.53;;;;;;;;;;5027897;28;58100;-73